Terminal Aerodrome Forecast
Issued by NWS

Home | Current Version | Previous Version | Text Only | Print | Product List | Glossary On
Versions: 1 2 3 4 5 6 7 8 9 10 11 12 13 14 15
000
FTUS43 KLSX 282336
TAFCPS
TAF
KCPS 282336Z 2900/2924 VRB04KT P6SM SCT040 BKN250
     FM291400 32008KT P6SM SCT100 BKN250
     FM291800 34009KT P6SM VCTS BKN040CB=

USA.gov is the U.S. government's official web portal to all federal, state and local government web resources and services.